Home > Products > Valid Products > MTR

000
SAUS70 KEPZ 241615
MTR5T6

METAR K5T6 241559Z 17006KT 10SM FEW150 SCT250 27/16 A3009 RMK
UNOFFICIAL=







000
SAUS70 KEPZ 241615
MTR5T6

METAR K5T6 241559Z 17006KT 10SM FEW150 SCT250 27/16 A3009 RMK
UNOFFICIAL=






    US Dept of Commerce
    National Oceanic and Atmospheric Administration
    National Weather Service
    1325 East West Highway
    Silver Spring, MD 20910
    Page Author: NWS Internet Services Team
Disclaimer
Information Quality
Credits
Glossary
Privacy Policy
Freedom of Information Act (FOIA)
About Us
Career Opportunities